Time;durP1;ratioP1;P1;durP2;ratioP2;P2;SDS_P1;SDS_P2;PMS_P1;PMS_P2;Temp;Humidity;BMP_temperature;BMP_pressure;BME280_temperature;BME280_humidity;BME280_pressure;Samples;Min_cycle;Max_cycle;Signal;HPM_P1;HPM_P2
2022/05/14 00:01:29;;;;;;;6.03;5.63;;;;;;;;;;4930276;29;20054;-80
2022/05/14 00:03:57;;;;;;;6.57;6.00;;;;;;;;;;4928157;29;20084;-79
2022/05/14 00:06:26;;;;;;;9.35;5.55;;;;;;;;;;4930177;29;20138;-79
2022/05/14 00:08:53;;;;;;;5.95;5.35;;;;;;;;;;4930440;29;20149;-79
2022/05/14 00:14:08;;;;;;;6.63;5.22;;;;;;;;;;4950013;28;20102;-78
2022/05/14 00:16:36;;;;;;;5.82;5.32;;;;;;;;;;4908322;29;20117;-79
2022/05/14 00:19:04;;;;;;;8.20;5.72;;;;;;;;;;4937528;28;20049;-79
2022/05/14 00:21:32;;;;;;;5.57;5.07;;;;;;;;;;4949477;28;20081;-80
2022/05/14 00:23:59;;;;;;;6.10;5.60;;;;;;;;;;4933564;29;20615;-79
2022/05/14 00:26:27;;;;;;;5.18;4.78;;;;;;;;;;4941964;28;20047;-79
2022/05/14 00:28:55;;;;;;;5.93;5.53;;;;;;;;;;4930470;29;20547;-79
2022/05/14 00:31:22;;;;;;;5.50;5.10;;;;;;;;;;4957551;28;20417;-79
2022/05/14 00:33:49;;;;;;;6.38;5.68;;;;;;;;;;4940800;29;20039;-79
2022/05/14 00:36:17;;;;;;;6.03;5.10;;;;;;;;;;4912109;29;20054;-79
2022/05/14 00:38:45;;;;;;;5.55;5.05;;;;;;;;;;4947743;29;20056;-80
2022/05/14 00:41:12;;;;;;;8.80;5.88;;;;;;;;;;4930131;29;20039;-79
2022/05/14 00:43:56;;;;;;;7.25;5.60;;;;;;;;;;4931094;29;20145;-79
2022/05/14 00:46:25;;;;;;;7.18;6.47;;;;;;;;;;4930030;29;20043;-79
2022/05/14 00:48:54;;;;;;;9.85;7.45;;;;;;;;;;4914244;29;20142;-79
2022/05/14 00:51:29;;;;;;;8.50;7.35;;;;;;;;;;4964335;28;20125;-79
2022/05/14 00:54:09;;;;;;;9.07;7.30;;;;;;;;;;4933167;28;20070;-79
2022/05/14 00:56:40;;;;;;;7.60;6.57;;;;;;;;;;4947401;28;20039;-79
2022/05/14 00:59:13;;;;;;;7.63;6.82;;;;;;;;;;4948690;28;20043;-79
2022/05/14 01:01:41;;;;;;;7.80;7.00;;;;;;;;;;4952293;28;20050;-79
2022/05/14 01:04:08;;;;;;;7.78;6.55;;;;;;;;;;4929130;29;20126;-80
2022/05/14 01:06:37;;;;;;;7.28;5.90;;;;;;;;;;4921017;29;20086;-79
2022/05/14 01:09:06;;;;;;;8.30;6.28;;;;;;;;;;4917323;29;20063;-79
2022/05/14 01:11:36;;;;;;;6.97;6.00;;;;;;;;;;4932908;29;20484;-79
2022/05/14 01:14:05;;;;;;;9.77;6.90;;;;;;;;;;4917469;29;20526;-79
2022/05/14 01:16:35;;;;;;;7.10;6.38;;;;;;;;;;4926509;28;20046;-80
2022/05/14 01:19:03;;;;;;;7.07;6.30;;;;;;;;;;4919928;29;20062;-80
2022/05/14 01:21:50;;;;;;;6.20;5.70;;;;;;;;;;4904977;29;20060;-78
2022/05/14 01:27:19;;;;;;;6.97;5.80;;;;;;;;;;4929429;29;20356;-79
2022/05/14 01:29:47;;;;;;;7.32;6.15;;;;;;;;;;4914675;29;20051;-79
2022/05/14 01:32:16;;;;;;;9.82;6.13;;;;;;;;;;4923736;29;20059;-79
2022/05/14 01:34:44;;;;;;;10.13;7.10;;;;;;;;;;4913136;29;20051;-79
2022/05/14 01:37:14;;;;;;;12.55;6.68;;;;;;;;;;4963050;28;20113;-79
2022/05/14 01:39:42;;;;;;;8.98;7.50;;;;;;;;;;4952194;28;20042;-79
2022/05/14 01:42:10;;;;;;;8.35;6.28;;;;;;;;;;4916778;29;20260;-79
2022/05/14 01:44:38;;;;;;;8.43;6.47;;;;;;;;;;4914761;29;20095;-79
2022/05/14 01:47:06;;;;;;;9.27;6.32;;;;;;;;;;4928419;28;20126;-79
2022/05/14 01:49:33;;;;;;;9.10;6.13;;;;;;;;;;4944452;29;20070;-78
2022/05/14 01:52:01;;;;;;;6.20;5.60;;;;;;;;;;4947717;29;20224;-79
2022/05/14 01:54:28;;;;;;;7.50;6.10;;;;;;;;;;4918108;29;20050;-79
2022/05/14 01:56:56;;;;;;;7.35;6.40;;;;;;;;;;4931406;28;20046;-79
2022/05/14 01:59:26;;;;;;;7.00;6.07;;;;;;;;;;4948687;23;20047;-82
2022/05/14 02:01:53;;;;;;;9.07;6.53;;;;;;;;;;4935508;28;20048;-82
2022/05/14 02:04:21;;;;;;;6.15;5.55;;;;;;;;;;4913515;29;20044;-82
2022/05/14 02:06:49;;;;;;;6.43;5.82;;;;;;;;;;4909973;29;20147;-82
2022/05/14 02:09:16;;;;;;;6.65;5.95;;;;;;;;;;4916341;29;20050;-82
2022/05/14 02:11:51;;;;;;;5.85;5.35;;;;;;;;;;4918201;29;20466;-82
2022/05/14 02:14:31;;;;;;;7.60;6.90;;;;;;;;;;4928572;29;20052;-82
2022/05/14 02:16:58;;;;;;;8.88;6.45;;;;;;;;;;4928085;29;20048;-82
2022/05/14 02:19:28;;;;;;;13.35;7.53;;;;;;;;;;4938419;29;20123;-82
2022/05/14 02:21:56;;;;;;;7.40;5.95;;;;;;;;;;4917279;29;20191;-82
2022/05/14 02:24:23;;;;;;;6.28;5.78;;;;;;;;;;4913306;29;20063;-82
2022/05/14 02:26:51;;;;;;;7.65;6.82;;;;;;;;;;4896414;29;20416;-82
2022/05/14 02:29:18;;;;;;;7.25;5.93;;;;;;;;;;4912427;29;20151;-82
2022/05/14 02:31:47;;;;;;;7.72;6.53;;;;;;;;;;4928026;29;20055;-82
2022/05/14 02:34:14;;;;;;;6.63;6.13;;;;;;;;;;4897083;29;20082;-82
2022/05/14 02:36:42;;;;;;;9.68;6.47;;;;;;;;;;4911977;29;20048;-81
2022/05/14 02:39:10;;;;;;;6.75;6.15;;;;;;;;;;4897210;29;20055;-82
2022/05/14 02:41:37;;;;;;;6.97;6.30;;;;;;;;;;4889076;29;20441;-81
2022/05/14 02:44:05;;;;;;;7.30;6.38;;;;;;;;;;4914744;29;20056;-81
2022/05/14 02:46:32;;;;;;;8.15;6.65;;;;;;;;;;4920106;29;20147;-82
2022/05/14 02:49:00;;;;;;;7.50;6.88;;;;;;;;;;4896810;29;20062;-81
2022/05/14 02:51:28;;;;;;;8.98;7.60;;;;;;;;;;4912163;29;20044;-82
2022/05/14 02:53:55;;;;;;;7.18;6.47;;;;;;;;;;4919480;29;20523;-82
2022/05/14 02:56:23;;;;;;;8.27;7.13;;;;;;;;;;4937130;29;20131;-82
2022/05/14 02:59:09;;;;;;;8.32;7.53;;;;;;;;;;4902506;29;20051;-81
2022/05/14 03:01:47;;;;;;;12.25;8.27;;;;;;;;;;4902153;29;20076;-82
2022/05/14 03:04:24;;;;;;;9.88;7.63;;;;;;;;;;4917275;29;20046;-81
2022/05/14 03:06:52;;;;;;;9.35;7.70;;;;;;;;;;4922923;29;20052;-82
2022/05/14 03:09:20;;;;;;;8.10;7.43;;;;;;;;;;4937750;29;20051;-82
2022/05/14 03:11:48;;;;;;;8.70;7.05;;;;;;;;;;4915486;29;20048;-81
2022/05/14 03:14:17;;;;;;;7.60;6.10;;;;;;;;;;4898895;29;20044;-82
2022/05/14 03:16:45;;;;;;;6.53;5.72;;;;;;;;;;4930270;29;20063;-82
2022/05/14 03:19:12;;;;;;;16.63;7.00;;;;;;;;;;4930848;29;20559;-81
2022/05/14 03:21:41;;;;;;;8.40;6.35;;;;;;;;;;4914760;29;20051;-81
2022/05/14 03:24:10;;;;;;;6.82;6.22;;;;;;;;;;4913947;29;20058;-81
2022/05/14 03:26:38;;;;;;;9.07;6.90;;;;;;;;;;4907310;29;20059;-81
2022/05/14 03:29:07;;;;;;;7.10;6.05;;;;;;;;;;4915208;29;20055;-82
2022/05/14 03:31:37;;;;;;;6.50;5.82;;;;;;;;;;4928316;28;20047;-81
2022/05/14 03:34:05;;;;;;;6.45;5.75;;;;;;;;;;4911449;29;20722;-81
2022/05/14 03:36:33;;;;;;;10.70;6.75;;;;;;;;;;4912997;29;20043;-81
2022/05/14 03:39:01;;;;;;;12.10;7.53;;;;;;;;;;4898021;29;20567;-81
2022/05/14 03:41:28;;;;;;;11.30;7.00;;;;;;;;;;4925522;29;20039;-82
2022/05/14 03:43:57;;;;;;;23.58;8.48;;;;;;;;;;4925428;29;20572;-82
2022/05/14 03:46:25;;;;;;;7.53;6.93;;;;;;;;;;4927636;29;20135;-81
2022/05/14 03:48:52;;;;;;;7.00;6.40;;;;;;;;;;4917032;29;20044;-82
2022/05/14 03:51:21;;;;;;;7.45;6.75;;;;;;;;;;4912501;29;20067;-82
2022/05/14 03:53:49;;;;;;;7.25;6.38;;;;;;;;;;4894798;29;20043;-82
2022/05/14 03:56:17;;;;;;;6.88;6.20;;;;;;;;;;4886466;29;20044;-82
2022/05/14 03:58:46;;;;;;;7.72;6.88;;;;;;;;;;4908244;29;20385;-82
2022/05/14 04:01:13;;;;;;;7.05;6.45;;;;;;;;;;4921036;29;20416;-82
2022/05/14 04:03:41;;;;;;;7.35;5.85;;;;;;;;;;4914485;29;20054;-82
2022/05/14 04:06:09;;;;;;;6.40;5.90;;;;;;;;;;4945541;28;20054;-81
2022/05/14 04:08:37;;;;;;;7.10;6.40;;;;;;;;;;4929894;29;20047;-82
2022/05/14 04:11:05;;;;;;;12.82;6.72;;;;;;;;;;4906491;29;20055;-81
2022/05/14 04:13:33;;;;;;;11.40;6.78;;;;;;;;;;4911507;29;20118;-82
2022/05/14 04:16:02;;;;;;;16.90;6.38;;;;;;;;;;4910744;29;20048;-81
2022/05/14 04:18:30;;;;;;;5.80;5.38;;;;;;;;;;4910726;29;20115;-81
2022/05/14 04:20:58;;;;;;;7.50;6.80;;;;;;;;;;4910610;29;20048;-82
2022/05/14 04:23:31;;;;;;;25.55;6.70;;;;;;;;;;4909860;29;20040;-82
2022/05/14 04:26:01;;;;;;;6.00;5.20;;;;;;;;;;4913067;29;20044;-81
2022/05/14 04:28:33;;;;;;;6.25;5.65;;;;;;;;;;4910795;29;20067;-82
2022/05/14 04:31:04;;;;;;;6.83;6.23;;;;;;;;;;4894830;29;20156;-82
2022/05/14 04:33:39;;;;;;;16.77;6.50;;;;;;;;;;4909936;29;20347;-82
2022/05/14 04:36:25;;;;;;;6.30;5.80;;;;;;;;;;4910773;29;20449;-82
2022/05/14 04:38:52;;;;;;;6.70;5.78;;;;;;;;;;4902266;29;20074;-82
2022/05/14 04:41:21;;;;;;;9.90;5.88;;;;;;;;;;4913789;29;20060;-82
2022/05/14 04:43:52;;;;;;;9.25;5.95;;;;;;;;;;4897786;29;20042;-82
2022/05/14 04:46:20;;;;;;;8.20;6.25;;;;;;;;;;4922512;29;20131;-82
2022/05/14 04:48:49;;;;;;;7.20;6.10;;;;;;;;;;4921851;29;20036;-82
2022/05/14 04:51:17;;;;;;;7.43;5.78;;;;;;;;;;4905365;29;20038;-82
2022/05/14 04:53:48;;;;;;;6.25;5.72;;;;;;;;;;4915827;29;20056;-82
2022/05/14 04:56:20;;;;;;;16.92;6.03;;;;;;;;;;4916218;29;20052;-82
2022/05/14 04:58:49;;;;;;;6.38;5.65;;;;;;;;;;4898261;29;20852;-82
2022/05/14 05:01:16;;;;;;;6.07;5.30;;;;;;;;;;4914190;29;20047;-82
2022/05/14 05:03:47;;;;;;;14.73;6.03;;;;;;;;;;4921687;29;20044;-82
2022/05/14 05:06:18;;;;;;;6.90;4.93;;;;;;;;;;4925788;29;20044;-82
2022/05/14 05:08:49;;;;;;;5.32;4.93;;;;;;;;;;4904878;29;20072;-82
2022/05/14 05:11:21;;;;;;;6.72;5.63;;;;;;;;;;4914881;23;20039;-78
2022/05/14 05:13:49;;;;;;;6.20;5.22;;;;;;;;;;4912680;29;20123;-77
2022/05/14 05:16:17;;;;;;;5.90;5.38;;;;;;;;;;4905212;29;20036;-77
2022/05/14 05:18:45;;;;;;;5.70;5.00;;;;;;;;;;4888314;29;20078;-78
2022/05/14 05:21:12;;;;;;;6.32;5.70;;;;;;;;;;4879411;29;20124;-78
2022/05/14 05:23:40;;;;;;;8.18;5.60;;;;;;;;;;4877429;29;20051;-77
2022/05/14 05:26:07;;;;;;;6.60;6.10;;;;;;;;;;4893961;29;20646;-77
2022/05/14 05:28:34;;;;;;;6.30;5.80;;;;;;;;;;4893926;29;20124;-78
2022/05/14 05:31:07;;;;;;;5.93;5.53;;;;;;;;;;4893649;29;20045;-78
2022/05/14 05:33:35;;;;;;;5.90;5.40;;;;;;;;;;4876659;29;20056;-78
2022/05/14 05:36:02;;;;;;;7.57;5.97;;;;;;;;;;4884286;29;20047;-78
2022/05/14 05:38:29;;;;;;;7.25;6.15;;;;;;;;;;4874237;29;20041;-78
2022/05/14 05:40:57;;;;;;;7.80;6.35;;;;;;;;;;4905010;29;20040;-78
2022/05/14 05:43:24;;;;;;;7.22;6.43;;;;;;;;;;4879994;29;20294;-78
2022/05/14 05:45:52;;;;;;;8.43;5.78;;;;;;;;;;4889625;29;20059;-78
2022/05/14 05:48:20;;;;;;;10.80;6.05;;;;;;;;;;4865013;29;20113;-78
2022/05/14 05:50:48;;;;;;;6.53;6.03;;;;;;;;;;4873559;29;20541;-78
2022/05/14 05:53:16;;;;;;;20.02;6.00;;;;;;;;;;4886517;29;20376;-77
2022/05/14 05:58:31;;;;;;;6.32;5.80;;;;;;;;;;4896677;29;20097;-76
2022/05/14 06:00:59;;;;;;;30.35;6.50;;;;;;;;;;4890602;29;20502;-76
2022/05/14 06:03:27;;;;;;;6.80;6.30;;;;;;;;;;4877474;29;20040;-79
2022/05/14 06:05:55;;;;;;;7.30;6.53;;;;;;;;;;4898982;29;20119;-76
2022/05/14 06:08:23;;;;;;;15.80;6.82;;;;;;;;;;4893750;29;20048;-77
2022/05/14 06:10:51;;;;;;;7.80;6.45;;;;;;;;;;4891283;29;20420;-77
2022/05/14 06:13:18;;;;;;;7.40;6.10;;;;;;;;;;4893117;29;20135;-78
2022/05/14 06:15:46;;;;;;;7.97;6.50;;;;;;;;;;4895606;29;20367;-78
2022/05/14 06:18:13;;;;;;;6.70;6.10;;;;;;;;;;4886843;29;20044;-77
2022/05/14 06:20:42;;;;;;;7.18;6.68;;;;;;;;;;4887628;29;20108;-77
2022/05/14 06:23:09;;;;;;;5.40;5.00;;;;;;;;;;4889965;29;20068;-77
2022/05/14 06:25:37;;;;;;;9.48;6.50;;;;;;;;;;4893581;29;20044;-77
2022/05/14 06:28:05;;;;;;;6.95;6.45;;;;;;;;;;4888665;29;20060;-77
2022/05/14 06:30:43;;;;;;;7.65;6.80;;;;;;;;;;4888280;29;20052;-77
2022/05/14 06:33:13;;;;;;;5.82;5.32;;;;;;;;;;4889349;29;20037;-77
2022/05/14 06:35:41;;;;;;;6.20;5.70;;;;;;;;;;4891723;29;20052;-77
2022/05/14 06:38:08;;;;;;;7.30;6.70;;;;;;;;;;4891136;29;20130;-77
2022/05/14 06:40:36;;;;;;;6.05;5.55;;;;;;;;;;4873775;29;20112;-77
2022/05/14 06:43:05;;;;;;;5.78;5.28;;;;;;;;;;4889625;29;20055;-77
2022/05/14 06:45:35;;;;;;;6.97;6.28;;;;;;;;;;4893246;29;20040;-77
2022/05/14 06:48:02;;;;;;;5.80;5.40;;;;;;;;;;4892535;29;20397;-77
2022/05/14 06:50:31;;;;;;;6.93;6.32;;;;;;;;;;4894486;29;20185;-77
2022/05/14 06:53:01;;;;;;;7.85;7.25;;;;;;;;;;4890755;29;20040;-77
2022/05/14 06:55:32;;;;;;;6.05;5.55;;;;;;;;;;4895792;29;20048;-77
2022/05/14 06:57:59;;;;;;;5.70;5.30;;;;;;;;;;4892853;29;20135;-78
2022/05/14 07:00:27;;;;;;;7.53;5.50;;;;;;;;;;4874301;29;20513;-77
2022/05/14 07:06:37;;;;;;;5.68;4.90;;;;;;;;;;4897926;29;20048;-78
2022/05/14 07:08:29;;;;;;;5.43;5.03;;;;;;;;;;4894312;29;20049;-78
2022/05/14 07:10:56;;;;;;;5.30;4.75;;;;;;;;;;4877391;29;20057;-78
2022/05/14 07:13:23;;;;;;;5.00;4.55;;;;;;;;;;4894832;29;20146;-77
2022/05/14 07:15:51;;;;;;;6.05;5.40;;;;;;;;;;4892216;29;20127;-77
2022/05/14 07:18:19;;;;;;;5.15;4.63;;;;;;;;;;4896123;29;20048;-78
2022/05/14 07:20:47;;;;;;;5.00;4.55;;;;;;;;;;4889189;29;20343;-77
2022/05/14 07:23:14;;;;;;;4.20;3.90;;;;;;;;;;4879282;29;20048;-78
2022/05/14 07:25:42;;;;;;;5.40;4.35;;;;;;;;;;4875168;29;20068;-77
2022/05/14 07:28:10;;;;;;;3.63;3.42;;;;;;;;;;4893141;29;20083;-77
2022/05/14 07:30:37;;;;;;;6.40;3.65;;;;;;;;;;4879425;29;20057;-78
2022/05/14 07:33:05;;;;;;;6.07;3.63;;;;;;;;;;4891370;29;20510;-77
2022/05/14 07:35:33;;;;;;;5.15;3.50;;;;;;;;;;4894348;29;20053;-78
2022/05/14 07:38:06;;;;;;;3.58;3.10;;;;;;;;;;4893764;29;20497;-77
2022/05/14 07:40:34;;;;;;;5.60;3.25;;;;;;;;;;4893046;29;20466;-78
2022/05/14 07:43:07;;;;;;;3.72;3.40;;;;;;;;;;4896559;29;20064;-78
2022/05/14 07:45:43;;;;;;;3.92;3.15;;;;;;;;;;4907575;29;20052;-78
2022/05/14 07:48:13;;;;;;;3.38;3.08;;;;;;;;;;4874254;29;20120;-78
2022/05/14 07:50:41;;;;;;;5.15;3.08;;;;;;;;;;4893835;29;20052;-77
2022/05/14 07:53:09;;;;;;;3.42;2.72;;;;;;;;;;4879499;29;20079;-77
2022/05/14 07:55:37;;;;;;;3.90;2.60;;;;;;;;;;4903432;29;20092;-77
2022/05/14 07:58:04;;;;;;;3.20;2.90;;;;;;;;;;4898467;29;20128;-78
2022/05/14 08:00:33;;;;;;;2.88;2.67;;;;;;;;;;4890238;29;20535;-78
2022/05/14 08:03:01;;;;;;;4.53;2.90;;;;;;;;;;4876010;29;20052;-78
2022/05/14 08:05:29;;;;;;;4.25;2.85;;;;;;;;;;4895263;29;20971;-78
2022/05/14 08:07:57;;;;;;;3.30;3.00;;;;;;;;;;4871846;29;20227;-78
2022/05/14 08:10:25;;;;;;;4.07;2.55;;;;;;;;;;4898757;29;20051;-78
2022/05/14 08:12:57;;;;;;;5.55;2.72;;;;;;;;;;4881181;29;20049;-78
2022/05/14 08:15:26;;;;;;;2.63;2.45;;;;;;;;;;4905113;29;20055;-78
2022/05/14 08:17:53;;;;;;;3.60;2.22;;;;;;;;;;4899083;29;20048;-78
2022/05/14 08:20:20;;;;;;;6.22;2.58;;;;;;;;;;4890719;29;20097;-78
2022/05/14 08:25:35;;;;;;;2.50;2.30;;;;;;;;;;4895403;29;20091;-79
2022/05/14 08:28:03;;;;;;;5.72;2.35;;;;;;;;;;4882392;29;20407;-78
2022/05/14 08:30:32;;;;;;;2.95;2.42;;;;;;;;;;4892613;29;20267;-78
2022/05/14 08:33:00;;;;;;;2.60;2.40;;;;;;;;;;4901448;29;20103;-77
2022/05/14 08:35:28;;;;;;;2.65;2.13;;;;;;;;;;4892407;29;20048;-80
2022/05/14 08:37:57;;;;;;;4.57;2.00;;;;;;;;;;4859871;29;20056;-79
2022/05/14 08:40:37;;;;;;;2.38;2.20;;;;;;;;;;4897618;29;20044;-79
2022/05/14 08:43:06;;;;;;;3.67;2.20;;;;;;;;;;4903593;29;20064;-75
2022/05/14 08:45:37;;;;;;;1.98;1.70;;;;;;;;;;4878515;29;20360;-79
2022/05/14 08:48:14;;;;;;;5.60;1.85;;;;;;;;;;4875790;29;20053;-78
2022/05/14 08:50:42;;;;;;;3.13;1.63;;;;;;;;;;4873044;29;20083;-77
2022/05/14 08:53:14;;;;;;;1.70;1.60;;;;;;;;;;4894184;29;20087;-78
2022/05/14 08:55:46;;;;;;;2.35;1.50;;;;;;;;;;4899217;29;20044;-78
2022/05/14 08:58:37;;;;;;;2.05;1.85;;;;;;;;;;4883490;29;20045;-79
2022/05/14 09:01:06;;;;;;;2.33;1.60;;;;;;;;;;4889605;29;20100;-78
2022/05/14 09:03:33;;;;;;;5.45;2.50;;;;;;;;;;4886634;29;20520;-78
2022/05/14 09:06:01;;;;;;;3.60;1.52;;;;;;;;;;4870753;29;20366;-78
2022/05/14 09:08:32;;;;;;;2.53;1.30;;;;;;;;;;4891910;29;20067;-78
2022/05/14 09:11:01;;;;;;;1.63;1.17;;;;;;;;;;4888727;29;20426;-78
2022/05/14 09:13:29;;;;;;;5.00;1.30;;;;;;;;;;4887060;29;20576;-78
2022/05/14 09:16:06;;;;;;;4.57;1.02;;;;;;;;;;4870461;29;20497;-79
2022/05/14 09:18:45;;;;;;;2.10;0.95;;;;;;;;;;4892108;29;20559;-76
2022/05/14 09:21:19;;;;;;;1.52;1.00;;;;;;;;;;4904141;29;20051;-78
2022/05/14 09:23:49;;;;;;;2.35;1.10;;;;;;;;;;4896006;29;20055;-78
2022/05/14 09:26:19;;;;;;;1.40;1.10;;;;;;;;;;4893022;29;20505;-78
2022/05/14 09:28:52;;;;;;;2.85;1.13;;;;;;;;;;4895965;29;20052;-79
2022/05/14 09:31:26;;;;;;;3.70;0.90;;;;;;;;;;4873208;29;20417;-79
2022/05/14 09:34:05;;;;;;;1.60;1.00;;;;;;;;;;4889916;29;20127;-80
2022/05/14 09:36:41;;;;;;;1.75;0.93;;;;;;;;;;4890124;29;20532;-78
2022/05/14 09:39:15;;;;;;;0.98;0.90;;;;;;;;;;4892903;29;20416;-79
2022/05/14 09:41:46;;;;;;;1.95;1.02;;;;;;;;;;4883008;29;20461;-79
2022/05/14 09:44:18;;;;;;;2.15;1.00;;;;;;;;;;4898305;29;20609;-80
2022/05/14 09:46:45;;;;;;;4.45;1.05;;;;;;;;;;4867004;29;20068;-79
2022/05/14 09:49:19;;;;;;;1.10;1.00;;;;;;;;;;4873224;29;20056;-79
2022/05/14 09:51:50;;;;;;;1.83;1.15;;;;;;;;;;4908176;29;20052;-79
2022/05/14 09:54:29;;;;;;;2.75;1.00;;;;;;;;;;4893356;29;20045;-81
2022/05/14 09:57:09;;;;;;;2.00;0.85;;;;;;;;;;4894753;29;20044;-79
2022/05/14 09:59:39;;;;;;;1.25;0.77;;;;;;;;;;4887089;29;20576;-80
2022/05/14 10:02:28;;;;;;;2.13;1.00;;;;;;;;;;4896028;29;20136;-80
2022/05/14 10:04:56;;;;;;;3.28;0.93;;;;;;;;;;4891067;29;20158;-79
2022/05/14 10:07:26;;;;;;;5.65;1.30;;;;;;;;;;4878028;29;20086;-78
2022/05/14 10:10:08;;;;;;;4.82;0.88;;;;;;;;;;4873496;29;20084;-79
2022/05/14 10:12:39;;;;;;;3.58;0.80;;;;;;;;;;4899318;29;20386;-79
2022/05/14 10:15:27;;;;;;;2.60;0.90;;;;;;;;;;4910972;29;20052;-79
2022/05/14 10:18:01;;;;;;;1.23;0.80;;;;;;;;;;4886907;29;20044;-79
2022/05/14 10:20:32;;;;;;;3.03;0.90;;;;;;;;;;4907362;29;20056;-78
2022/05/14 10:29:14;;;;;;;3.67;1.30;;;;;;;;;;4892573;29;20056;-79
2022/05/14 10:31:45;;;;;;;0.85;0.70;;;;;;;;;;4897007;29;20405;-79
2022/05/14 10:34:15;;;;;;;2.80;1.10;;;;;;;;;;4896398;29;20052;-79
2022/05/14 10:36:46;;;;;;;1.33;0.90;;;;;;;;;;4898764;29;20056;-79
2022/05/14 10:39:16;;;;;;;4.78;1.20;;;;;;;;;;4895604;29;20724;-80
2022/05/14 10:41:45;;;;;;;2.53;0.90;;;;;;;;;;4875631;29;20075;-79
2022/05/14 10:44:31;;;;;;;0.88;0.80;;;;;;;;;;4890698;29;20650;-79
2022/05/14 10:47:01;;;;;;;4.88;0.90;;;;;;;;;;4874216;29;20052;-80
2022/05/14 10:49:43;;;;;;;8.85;8.10;;;;;;;;;;4907529;29;20052;-79
2022/05/14 10:52:15;;;;;;;2.92;1.20;;;;;;;;;;4872699;29;20049;-79
2022/05/14 10:54:44;;;;;;;1.90;0.88;;;;;;;;;;4883073;29;20052;-78
2022/05/14 10:57:15;;;;;;;2.45;0.90;;;;;;;;;;4874224;29;20067;-80
2022/05/14 11:00:20;;;;;;;1.92;1.00;;;;;;;;;;4903303;29;21802;-80
2022/05/14 11:02:52;;;;;;;1.30;1.20;;;;;;;;;;4888254;29;20106;-80
2022/05/14 11:05:31;;;;;;;1.85;0.85;;;;;;;;;;4892205;29;20036;-79
2022/05/14 11:08:13;;;;;;;2.75;0.93;;;;;;;;;;4899339;29;20084;-80
2022/05/14 11:10:42;;;;;;;1.13;0.90;;;;;;;;;;4910170;29;20521;-80
2022/05/14 11:13:15;;;;;;;0.93;0.85;;;;;;;;;;4879653;29;20319;-79
2022/05/14 11:15:43;;;;;;;2.72;0.88;;;;;;;;;;4886989;29;20079;-79
2022/05/14 11:18:15;;;;;;;0.88;0.82;;;;;;;;;;4883765;29;20049;-79
2022/05/14 11:20:58;;;;;;;0.85;0.80;;;;;;;;;;4869459;29;20048;-80
2022/05/14 11:23:32;;;;;;;0.70;0.70;;;;;;;;;;4905470;29;20140;-78
2022/05/14 11:26:06;;;;;;;2.30;0.80;;;;;;;;;;4893420;29;20059;-79
2022/05/14 11:28:34;;;;;;;0.98;0.80;;;;;;;;;;4899967;29;20049;-79
2022/05/14 11:31:30;;;;;;;2.28;1.13;;;;;;;;;;4887667;29;20053;-79
2022/05/14 11:34:00;;;;;;;2.25;0.80;;;;;;;;;;4875931;29;20104;-78
2022/05/14 11:36:29;;;;;;;3.55;0.80;;;;;;;;;;4893509;29;20051;-78
2022/05/14 11:39:22;;;;;;;2.25;0.88;;;;;;;;;;4892762;29;20054;-78
2022/05/14 11:41:51;;;;;;;1.85;0.75;;;;;;;;;;4892885;29;20451;-79
2022/05/14 11:44:36;;;;;;;4.55;1.00;;;;;;;;;;4873090;29;20041;-78
2022/05/14 11:47:30;;;;;;;2.58;0.70;;;;;;;;;;4894153;29;20072;-78
2022/05/14 11:49:58;;;;;;;2.58;1.55;;;;;;;;;;4871606;29;20048;-79
2022/05/14 11:52:36;;;;;;;4.05;1.00;;;;;;;;;;4893178;29;20052;-78
2022/05/14 11:55:11;;;;;;;2.22;1.00;;;;;;;;;;4892615;29;20500;-77
2022/05/14 11:57:44;;;;;;;3.25;1.02;;;;;;;;;;4888518;29;20132;-78
2022/05/14 12:00:16;;;;;;;3.30;0.93;;;;;;;;;;4889645;29;20664;-79
2022/05/14 12:02:45;;;;;;;1.05;0.70;;;;;;;;;;4898055;29;20044;-78
2022/05/14 12:05:15;;;;;;;1.75;0.75;;;;;;;;;;4891996;29;20040;-77
2022/05/14 12:07:43;;;;;;;;;;;;;;;;;;4897949;29;20040;-76
2022/05/14 12:10:23;;;;;;;2.17;1.00;;;;;;;;;;4894734;29;19967;-78
2022/05/14 12:13:09;;;;;;;1.65;0.80;;;;;;;;;;4896170;29;20139;-78
2022/05/14 12:15:45;;;;;;;1.85;0.98;;;;;;;;;;4899811;29;20502;-78
2022/05/14 12:18:12;;;;;;;5.40;1.30;;;;;;;;;;4896898;29;20036;-78
2022/05/14 12:20:40;;;;;;;1.75;0.90;;;;;;;;;;4891445;29;20040;-77
2022/05/14 12:23:11;;;;;;;1.00;0.73;;;;;;;;;;4891167;29;20063;-78
2022/05/14 12:25:44;;;;;;;1.70;1.05;;;;;;;;;;4888853;29;20131;-79
2022/05/14 12:28:19;;;;;;;2.05;0.93;;;;;;;;;;4893805;29;20037;-79
2022/05/14 12:33:42;;;;;;;1.52;0.80;;;;;;;;;;4895421;29;20056;-79
2022/05/14 12:36:11;;;;;;;1.35;0.77;;;;;;;;;;4893037;29;20041;-79
2022/05/14 12:38:41;;;;;;;3.53;0.80;;;;;;;;;;4883049;29;20055;-80
2022/05/14 12:41:09;;;;;;;;;;;;;;;;;;4892163;29;20045;-80
2022/05/14 12:43:36;;;;;;;1.17;0.90;;;;;;;;;;4897830;29;20190;-80
2022/05/14 12:46:06;;;;;;;1.13;0.90;;;;;;;;;;4892110;29;20101;-77
2022/05/14 12:48:49;;;;;;;6.43;1.10;;;;;;;;;;4888653;29;20063;-78
2022/05/14 12:51:21;;;;;;;1.02;0.90;;;;;;;;;;4860303;29;20050;-79
2022/05/14 12:53:52;;;;;;;3.13;0.95;;;;;;;;;;4889237;29;20056;-79
2022/05/14 12:56:21;;;;;;;2.85;0.80;;;;;;;;;;4891418;29;20049;-78
2022/05/14 12:58:49;;;;;;;7.15;1.02;;;;;;;;;;4891398;29;20127;-78
2022/05/14 13:01:18;;;;;;;2.22;0.70;;;;;;;;;;4891849;29;20059;-79
2022/05/14 13:03:50;;;;;;;1.60;0.80;;;;;;;;;;4899039;29;20036;-79
2022/05/14 13:06:22;;;;;;;1.40;0.80;;;;;;;;;;4899016;29;20045;-78
2022/05/14 13:08:52;;;;;;;2.13;0.88;;;;;;;;;;4900145;29;20050;-78
2022/05/14 13:11:24;;;;;;;1.80;0.88;;;;;;;;;;4917390;29;20044;-79
2022/05/14 13:13:57;;;;;;;1.38;0.90;;;;;;;;;;4900693;29;20056;-79
2022/05/14 13:16:34;;;;;;;1.85;0.85;;;;;;;;;;4895864;29;20079;-79
2022/05/14 13:19:06;;;;;;;4.88;1.13;;;;;;;;;;4906887;29;20045;-79
2022/05/14 13:21:46;;;;;;;1.63;0.70;;;;;;;;;;4880969;29;20124;-78
2022/05/14 13:24:24;;;;;;;1.58;0.90;;;;;;;;;;4890851;29;20032;-79
2022/05/14 13:26:53;;;;;;;2.13;0.90;;;;;;;;;;4883940;29;20124;-79
2022/05/14 13:29:31;;;;;;;3.17;1.77;;;;;;;;;;4901075;29;20045;-80
2022/05/14 13:32:10;;;;;;;3.50;1.10;;;;;;;;;;4900026;29;20047;-78
2022/05/14 13:37:37;;;;;;;0.85;0.80;;;;;;;;;;4892160;29;20151;-79
2022/05/14 13:40:12;;;;;;;2.75;1.02;;;;;;;;;;4862341;29;20048;-79
2022/05/14 13:42:46;;;;;;;3.30;0.93;;;;;;;;;;4873412;29;20535;-79
2022/05/14 13:45:27;;;;;;;1.35;0.85;;;;;;;;;;4880182;29;20048;-79
2022/05/14 13:47:57;;;;;;;1.83;0.82;;;;;;;;;;4910188;29;20100;-79
2022/05/14 13:50:36;;;;;;;1.42;0.90;;;;;;;;;;4883622;29;20051;-80
2022/05/14 13:53:04;;;;;;;2.25;0.80;;;;;;;;;;4899988;29;20049;-78
2022/05/14 13:55:36;;;;;;;1.77;0.80;;;;;;;;;;4903357;29;20053;-79
2022/05/14 13:58:13;;;;;;;1.40;1.00;;;;;;;;;;4885344;29;20056;-78
2022/05/14 14:00:53;;;;;;;1.27;0.98;;;;;;;;;;4961846;23;20059;-79
2022/05/14 14:03:21;;;;;;;;;;;;;;;;;;4920617;28;20086;-81
2022/05/14 14:05:49;;;;;;;2.70;0.95;;;;;;;;;;4935345;28;19926;-82
2022/05/14 14:08:19;;;;;;;1.10;1.00;;;;;;;;;;4949193;28;20043;-81
2022/05/14 14:10:47;;;;;;;1.65;1.00;;;;;;;;;;4935658;28;20156;-81
2022/05/14 14:13:14;;;;;;;1.58;1.00;;;;;;;;;;4941839;28;20062;-81
2022/05/14 14:15:41;;;;;;;1.42;0.80;;;;;;;;;;4949281;28;20043;-84
2022/05/14 14:18:09;;;;;;;1.58;0.77;;;;;;;;;;4953119;28;20039;-82
2022/05/14 14:20:38;;;;;;;1.98;0.90;;;;;;;;;;4956261;28;20039;-82
2022/05/14 14:23:08;;;;;;;3.10;1.13;;;;;;;;;;4935189;28;20089;-81
2022/05/14 14:25:39;;;;;;;1.42;0.80;;;;;;;;;;4949426;28;20074;-82
2022/05/14 14:28:06;;;;;;;;;;;;;;;;;;4933366;28;20050;-81
2022/05/14 14:30:33;;;;;;;1.02;0.90;;;;;;;;;;4950578;28;19926;-83
2022/05/14 14:33:05;;;;;;;3.50;0.93;;;;;;;;;;4950523;28;20171;-85
2022/05/14 14:35:32;;;;;;;3.03;1.10;;;;;;;;;;4951046;28;20125;-83
2022/05/14 14:37:59;;;;;;;5.03;1.00;;;;;;;;;;4926517;28;20130;-84
2022/05/14 14:40:27;;;;;;;1.80;0.95;;;;;;;;;;4932857;28;20046;-83
2022/05/14 14:42:55;;;;;;;2.80;1.20;;;;;;;;;;4950203;28;20043;-83
2022/05/14 14:45:22;;;;;;;1.75;0.90;;;;;;;;;;4948392;28;20063;-84
2022/05/14 14:47:50;;;;;;;2.50;0.70;;;;;;;;;;4946894;28;20653;-85
2022/05/14 14:50:24;;;;;;;1.05;0.80;;;;;;;;;;4931336;28;20067;-84
2022/05/14 14:52:52;;;;;;;4.97;1.00;;;;;;;;;;4946853;28;20047;-84
2022/05/14 14:55:19;;;;;;;1.80;1.00;;;;;;;;;;4951503;28;20051;-85
2022/05/14 15:00:44;;;;;;;1.77;0.88;;;;;;;;;;4950132;28;20039;-81
2022/05/14 15:03:18;;;;;;;1.63;0.80;;;;;;;;;;4947761;28;20049;-82
2022/05/14 15:05:47;;;;;;;2.08;0.77;;;;;;;;;;4932901;28;20059;-82
2022/05/14 15:08:17;;;;;;;1.50;0.80;;;;;;;;;;4939324;28;20051;-81
2022/05/14 15:10:44;;;;;;;1.67;0.88;;;;;;;;;;4955293;28;20146;-82
2022/05/14 15:13:13;;;;;;;13.18;1.20;;;;;;;;;;4922696;28;20047;-82
2022/05/14 15:15:40;;;;;;;2.65;1.00;;;;;;;;;;4936853;28;20603;-81
2022/05/14 15:18:08;;;;;;;1.83;0.80;;;;;;;;;;4954578;28;20058;-83
2022/05/14 15:20:38;;;;;;;0.60;0.60;;;;;;;;;;4954818;28;20046;-82
2022/05/14 15:23:05;;;;;;;0.80;0.73;;;;;;;;;;4957441;28;20051;-82
2022/05/14 15:25:32;;;;;;;1.58;0.80;;;;;;;;;;4954621;28;20035;-82
2022/05/14 15:28:05;;;;;;;1.73;1.00;;;;;;;;;;4955068;28;20391;-82
2022/05/14 15:30:33;;;;;;;3.60;1.00;;;;;;;;;;4951129;28;20142;-82
2022/05/14 15:33:03;;;;;;;2.92;2.00;;;;;;;;;;4934974;28;20059;-80